createdAt,value
2017-06-18T00:00:58.797Z,0
2017-06-18T00:01:58.511Z,0
2017-06-18T00:02:58.843Z,0
2017-06-18T00:03:58.862Z,0
2017-06-18T00:04:58.890Z,0
2017-06-18T00:05:58.911Z,0
2017-06-18T00:07:13.555Z,0
2017-06-18T00:07:59.012Z,0
2017-06-18T00:08:58.998Z,0
2017-06-18T00:09:59.008Z,0
2017-06-18T00:10:59.036Z,0
2017-06-18T00:12:13.674Z,0
2017-06-18T00:12:59.080Z,0
2017-06-18T00:14:13.721Z,0
2017-06-18T00:14:58.828Z,0
2017-06-18T00:16:58.874Z,0
2017-06-18T00:17:59.201Z,0
2017-06-18T00:18:59.227Z,0
2017-06-18T00:19:59.249Z,0
2017-06-18T00:20:58.970Z,0
2017-06-18T00:21:59.303Z,0
2017-06-18T00:22:59.329Z,0
2017-06-18T00:23:59.350Z,0
2017-06-18T00:25:13.989Z,0
2017-06-18T00:26:59.421Z,0
2017-06-18T00:28:14.058Z,0
2017-06-18T00:28:59.469Z,0
2017-06-18T00:30:14.111Z,0
2017-06-18T00:30:59.513Z,0
2017-06-18T00:31:59.238Z,0
2017-06-18T00:32:59.562Z,0
2017-06-18T00:33:59.587Z,0
2017-06-18T00:34:59.608Z,0
2017-06-18T00:35:59.332Z,0
2017-06-18T00:36:59.659Z,0
2017-06-18T00:38:13.996Z,0
2017-06-18T00:39:14.324Z,0
2017-06-18T00:39:59.427Z,0
2017-06-18T00:40:59.451Z,0
2017-06-18T00:41:59.478Z,0
2017-06-18T00:43:14.114Z,0
2017-06-18T00:43:59.520Z,0
2017-06-18T00:46:14.489Z,0
2017-06-18T00:46:59.898Z,0
2017-06-18T00:47:59.618Z,0
2017-06-18T00:48:59.947Z,0
2017-06-18T00:49:59.665Z,0
2017-06-18T00:51:14.663Z,0
2017-06-18T00:52:00.069Z,0
2017-06-18T00:52:59.738Z,0
2017-06-18T00:54:00.064Z,0
2017-06-18T00:54:59.789Z,0
2017-06-18T00:56:00.113Z,0
2017-06-18T00:58:14.474Z,0
2017-06-18T00:59:00.192Z,0
2017-06-18T01:00:00.208Z,0
2017-06-18T01:01:00.236Z,0
2017-06-18T01:02:14.875Z,0
2017-06-18T01:02:59.978Z,0
2017-06-18T01:05:00.328Z,0
2017-06-18T01:06:00.049Z,0
2017-06-18T01:07:00.071Z,0
2017-06-18T01:07:59.793Z,0
2017-06-18T01:09:00.423Z,0
2017-06-18T01:10:00.447Z,0
2017-06-18T01:11:59.886Z,0
2017-06-18T01:14:15.161Z,0
2017-06-18T01:15:15.184Z,0
2017-06-18T01:17:15.233Z,0
2017-06-18T01:18:00.335Z,0
2017-06-18T01:20:00.686Z,0
2017-06-18T01:21:00.713Z,0
2017-06-18T01:22:00.741Z,0
2017-06-18T01:23:00.759Z,0
2017-06-18T01:24:14.793Z,0
2017-06-18T01:25:00.805Z,0
2017-06-18T01:27:00.851Z,0
2017-06-18T01:28:00.878Z,0
2017-06-18T01:29:00.901Z,0
2017-06-18T01:30:00.922Z,0
2017-06-18T01:31:00.947Z,0
2017-06-18T01:32:00.667Z,0
2017-06-18T01:33:00.689Z,0
2017-06-18T01:34:01.019Z,0
2017-06-18T01:35:01.042Z,0
2017-06-18T01:36:01.069Z,0
2017-06-18T01:37:01.091Z,0
2017-06-18T01:38:01.141Z,0
2017-06-18T01:39:01.137Z,0
2017-06-18T01:40:01.161Z,0
2017-06-18T01:41:15.804Z,0
2017-06-18T01:42:00.904Z,0
2017-06-18T01:43:15.851Z,0
2017-06-18T01:44:01.255Z,0
2017-06-18T01:45:01.280Z,0
2017-06-18T01:46:01.304Z,0
2017-06-18T01:47:01.332Z,0
2017-06-18T01:48:01.046Z,0
2017-06-18T01:49:15.989Z,0
2017-06-18T01:51:01.424Z,0
2017-06-18T01:52:01.445Z,4
2017-06-18T01:53:01.472Z,4
2017-06-18T01:54:01.190Z,4
2017-06-18T01:55:01.518Z,0
2017-06-18T01:56:01.290Z,0
2017-06-18T01:57:01.563Z,4
2017-06-18T01:58:16.206Z,4
2017-06-18T01:59:01.613Z,4
2017-06-18T02:00:01.632Z,4
2017-06-18T02:02:16.304Z,4
2017-06-18T02:04:01.729Z,4
2017-06-18T02:05:16.371Z,8
2017-06-18T02:06:01.774Z,8
2017-06-18T02:07:01.801Z,8
2017-06-18T02:08:01.519Z,8
2017-06-18T02:09:01.846Z,8
2017-06-18T02:10:01.868Z,16
2017-06-18T02:11:01.895Z,16
2017-06-18T02:12:02.217Z,16
2017-06-18T02:13:01.941Z,16
2017-06-18T02:14:01.965Z,20
2017-06-18T02:15:01.990Z,24
2017-06-18T02:16:02.014Z,28
2017-06-18T02:17:02.037Z,28
2017-06-18T02:19:01.779Z,36
2017-06-18T02:20:02.107Z,44
2017-06-18T02:21:16.746Z,44
2017-06-18T02:23:02.229Z,56
2017-06-18T02:24:01.901Z,60
2017-06-18T02:25:02.225Z,72
2017-06-18T02:26:02.249Z,76
2017-06-18T02:27:02.272Z,84
2017-06-18T02:28:02.295Z,96
2017-06-18T02:29:02.318Z,100
2017-06-18T02:30:16.960Z,116
2017-06-18T02:31:02.368Z,120
2017-06-18T02:32:02.441Z,132
2017-06-18T02:33:02.413Z,144
2017-06-18T02:34:02.437Z,156
2017-06-18T02:35:02.461Z,168
2017-06-18T02:36:02.485Z,184
2017-06-18T02:37:17.125Z,200
2017-06-18T02:38:02.228Z,212
2017-06-18T02:39:02.557Z,228
2017-06-18T02:40:02.576Z,244
2017-06-18T02:41:02.605Z,260
2017-06-18T02:42:02.626Z,280
2017-06-18T02:43:02.650Z,300
2017-06-18T02:44:02.672Z,316
2017-06-18T02:45:02.701Z,340
2017-06-18T02:46:17.336Z,368
2017-06-18T02:47:02.742Z,384
2017-06-18T02:48:02.766Z,412
2017-06-18T02:49:02.844Z,432
2017-06-18T02:50:02.815Z,460
2017-06-18T02:51:02.841Z,488
2017-06-18T02:52:17.477Z,524
2017-06-18T02:53:02.885Z,548
2017-06-18T02:54:02.905Z,576
2017-06-18T02:55:02.929Z,608
2017-06-18T02:56:02.953Z,636
2017-06-18T02:57:02.978Z,672
2017-06-18T02:58:03.000Z,700
2017-06-18T02:59:03.075Z,736
2017-06-18T03:00:03.046Z,768
2017-06-18T03:01:17.693Z,812
2017-06-18T03:02:17.711Z,852
2017-06-18T03:03:03.118Z,876
2017-06-18T03:04:02.837Z,916
2017-06-18T03:05:02.859Z,952
2017-06-18T03:06:03.187Z,996
2017-06-18T03:07:03.215Z,1036
2017-06-18T03:08:02.930Z,1076
2017-06-18T03:09:02.954Z,1116
2017-06-18T03:11:03.305Z,1200
2017-06-18T03:12:03.328Z,1240
2017-06-18T03:13:03.352Z,1284
2017-06-18T03:14:03.374Z,1324
2017-06-18T03:15:03.402Z,1364
2017-06-18T03:16:03.420Z,1408
2017-06-18T03:17:03.145Z,1448
2017-06-18T03:18:03.166Z,1492
2017-06-18T03:19:17.807Z,1544
2017-06-18T03:20:03.211Z,1576
2017-06-18T03:21:03.236Z,1616
2017-06-18T03:22:03.258Z,1652
2017-06-18T03:23:03.589Z,1680
2017-06-18T03:24:18.225Z,1732
2017-06-18T03:25:18.258Z,1800
2017-06-18T03:27:03.375Z,1888
2017-06-18T03:28:03.396Z,1936
2017-06-18T03:29:03.723Z,1980
2017-06-18T03:30:03.750Z,2024
2017-06-18T03:31:03.466Z,2068
2017-06-18T03:32:18.414Z,2124
2017-06-18T03:33:03.820Z,2156
2017-06-18T03:34:03.540Z,2212
2017-06-18T03:35:18.532Z,2288
2017-06-18T03:36:03.595Z,2312
2017-06-18T03:38:03.632Z,2412
2017-06-18T03:39:03.958Z,2528
2017-06-18T03:40:18.604Z,2608
2017-06-18T03:41:04.011Z,2580
2017-06-18T03:42:04.029Z,2616
2017-06-18T03:43:04.050Z,2696
2017-06-18T03:44:04.081Z,2760
2017-06-18T03:45:04.099Z,2772
2017-06-18T03:46:03.872Z,2792
2017-06-18T03:47:04.150Z,2852
2017-06-18T03:48:03.871Z,2828
2017-06-18T03:49:18.812Z,2884
2017-06-18T03:50:04.222Z,2912
2017-06-18T03:51:18.857Z,2996
2017-06-18T03:52:18.580Z,3020
2017-06-18T03:53:18.902Z,3084
2017-06-18T03:54:04.316Z,3104
2017-06-18T03:55:04.334Z,3372
2017-06-18T03:56:19.031Z,4400
2017-06-18T03:58:04.408Z,4568
2017-06-18T03:59:04.429Z,3796
2017-06-18T04:00:04.455Z,5748
2017-06-18T04:01:04.479Z,5736
2017-06-18T04:02:04.813Z,4372
2017-06-18T04:03:04.523Z,4044
2017-06-18T04:04:04.548Z,3836
2017-06-18T04:05:04.568Z,3724
2017-06-18T04:06:04.597Z,3808
2017-06-18T04:07:04.621Z,3896
2017-06-18T04:08:19.260Z,8780
2017-06-18T04:09:04.664Z,18720
2017-06-18T04:10:04.688Z,33216
2017-06-18T04:11:04.712Z,46848
2017-06-18T04:12:19.357Z,53184
2017-06-18T04:13:04.762Z,54752
2017-06-18T04:15:04.808Z,56224
2017-06-18T04:16:04.834Z,58976
2017-06-18T04:17:04.858Z,59520
2017-06-18T04:18:04.600Z,59744
2017-06-18T04:19:04.911Z,58592
2017-06-18T04:20:04.632Z,58880
2017-06-18T04:21:04.969Z,59264
2017-06-18T04:22:19.608Z,58720
2017-06-18T04:23:05.019Z,58752
2017-06-18T04:24:05.041Z,60000
2017-06-18T04:25:19.388Z,63584
2017-06-18T04:26:05.099Z,64736
2017-06-18T04:27:19.746Z,65152
2017-06-18T04:29:05.186Z,62624
2017-06-18T04:30:04.910Z,65088
2017-06-18T04:31:05.253Z,68320
2017-06-18T04:32:04.969Z,68768
2017-06-18T04:33:05.307Z,67520
2017-06-18T04:34:05.331Z,64960
2017-06-18T04:35:05.367Z,64704
2017-06-18T04:36:05.090Z,68128
2017-06-18T04:37:20.044Z,69120
2017-06-18T04:39:05.183Z,69600
2017-06-18T04:40:05.516Z,68384
2017-06-18T04:42:05.582Z,71168
2017-06-18T04:43:05.310Z,68992
2017-06-18T04:44:05.666Z,70848
2017-06-18T04:45:05.727Z,71424
2017-06-18T04:46:05.714Z,71392
2017-06-18T04:48:05.776Z,69312
2017-06-18T04:49:05.806Z,66080
2017-06-18T04:50:05.897Z,68672
2017-06-18T04:51:05.871Z,68896
2017-06-18T04:52:20.530Z,73696
2017-06-18T04:53:20.559Z,73344
2017-06-18T04:54:20.594Z,73088
2017-06-18T04:55:05.399Z,73280
2017-06-18T04:56:06.042Z,74848
2017-06-18T04:57:05.776Z,75776
2017-06-18T04:58:05.806Z,77984
2017-06-18T04:59:20.763Z,78656
2017-06-18T05:00:06.181Z,80384
2017-06-18T05:01:05.907Z,80960
2017-06-18T05:02:05.943Z,80480
2017-06-18T05:03:05.974Z,76384
2017-06-18T05:04:06.315Z,79328
2017-06-18T05:05:06.351Z,81376
2017-06-18T05:06:06.385Z,82688
2017-06-18T05:07:06.419Z,84288
2017-06-18T05:08:21.075Z,82656
2017-06-18T05:09:06.489Z,80480
2017-06-18T05:10:06.525Z,78848
2017-06-18T05:11:21.181Z,76000
2017-06-18T05:12:06.600Z,79712
2017-06-18T05:15:21.323Z,84928
2017-06-18T05:16:06.738Z,86048
2017-06-18T05:17:06.774Z,85792
2017-06-18T05:18:06.808Z,86240
2017-06-18T05:19:06.846Z,83680
2017-06-18T05:20:06.880Z,81696
2017-06-18T05:21:21.562Z,83872
2017-06-18T05:22:06.955Z,86048
2017-06-18T05:23:21.613Z,89600
2017-06-18T05:24:07.023Z,89088
2017-06-18T05:25:07.063Z,90944
2017-06-18T05:26:07.100Z,90016
2017-06-18T05:27:07.137Z,91168
2017-06-18T05:28:07.221Z,90464
2017-06-18T05:29:07.212Z,92608
2017-06-18T05:30:06.940Z,93920
2017-06-18T05:31:21.901Z,94688
2017-06-18T05:32:07.318Z,93760
2017-06-18T05:33:07.355Z,94144
2017-06-18T05:34:07.393Z,91872
2017-06-18T05:35:07.126Z,92480
2017-06-18T05:36:07.463Z,95072
2017-06-18T05:37:07.196Z,94272
2017-06-18T05:38:07.541Z,86816
2017-06-18T05:39:07.273Z,87232
2017-06-18T05:40:07.306Z,87424
2017-06-18T05:41:07.349Z,91456
2017-06-18T05:42:07.383Z,93696
2017-06-18T05:43:22.341Z,93792
2017-06-18T05:45:07.802Z,92288
2017-06-18T05:47:22.491Z,97728
2017-06-18T05:48:07.910Z,96672
2017-06-18T05:49:07.643Z,88896
2017-06-18T05:50:07.680Z,84480
2017-06-18T05:51:07.724Z,88032
2017-06-18T05:52:07.754Z,95808
2017-06-18T05:53:08.097Z,99776
2017-06-18T05:54:08.136Z,96640
2017-06-18T05:55:07.870Z,96096
2017-06-18T05:56:08.208Z,94976
2017-06-18T05:57:22.867Z,93024
2017-06-18T05:58:08.334Z,95808
2017-06-18T05:59:08.323Z,95552
2017-06-18T06:00:22.985Z,96992
2017-06-18T06:01:08.400Z,96672
2017-06-18T06:02:23.057Z,99392
2017-06-18T06:03:08.169Z,101472
2017-06-18T06:04:08.209Z,102720
2017-06-18T06:05:08.246Z,97344
2017-06-18T06:06:08.590Z,92480
2017-06-18T06:07:08.659Z,86432
2017-06-18T06:08:08.666Z,85760
2017-06-18T06:09:08.700Z,90304
2017-06-18T06:10:08.744Z,92128
2017-06-18T06:11:08.777Z,92832
2017-06-18T06:12:08.830Z,94048
2017-06-18T06:13:08.856Z,95072
2017-06-18T06:14:23.512Z,92576
2017-06-18T06:15:08.322Z,91456
2017-06-18T06:16:08.968Z,91936
2017-06-18T06:18:09.045Z,93760
2017-06-18T06:19:08.782Z,93952
2017-06-18T06:20:08.819Z,93760
2017-06-18T06:21:09.159Z,94688
2017-06-18T06:22:08.897Z,95136
2017-06-18T06:23:09.238Z,94368
2017-06-18T06:24:08.970Z,94880
2017-06-18T06:25:09.321Z,94496
2017-06-18T06:26:09.353Z,93056
2017-06-18T06:27:09.391Z,93632
2017-06-18T06:28:09.128Z,91936
2017-06-18T06:29:09.166Z,88064
2017-06-18T06:31:09.242Z,90240
2017-06-18T06:33:09.348Z,89184
2017-06-18T06:34:24.283Z,88000
2017-06-18T06:35:09.706Z,86080
2017-06-18T06:36:09.789Z,84928
2017-06-18T06:37:09.785Z,83296
2017-06-18T06:38:09.515Z,85472
2017-06-18T06:39:09.855Z,80416
2017-06-18T06:40:09.905Z,76512
2017-06-18T06:41:09.326Z,76576
2017-06-18T06:42:09.972Z,80192
2017-06-18T06:43:09.708Z,80864
2017-06-18T06:44:09.745Z,84032
2017-06-18T06:46:09.826Z,84512
2017-06-18T06:47:09.869Z,81984
2017-06-18T06:49:10.245Z,83296
2017-06-18T06:50:24.909Z,82240
2017-06-18T06:52:10.060Z,85504
2017-06-18T06:53:10.400Z,82528
2017-06-18T06:54:10.142Z,78080
2017-06-18T06:55:10.180Z,79776
2017-06-18T06:56:10.517Z,82624
2017-06-18T06:57:10.610Z,82624
2017-06-18T06:58:10.596Z,81248
2017-06-18T06:59:25.258Z,76896
2017-06-18T07:00:10.368Z,76480
2017-06-18T07:01:10.723Z,76416
2017-06-18T07:02:10.452Z,76640
2017-06-18T07:03:10.792Z,76192
2017-06-18T07:04:10.834Z,76992
2017-06-18T07:06:25.529Z,77792
2017-06-18T07:07:10.998Z,78304
2017-06-18T07:08:10.688Z,77888
2017-06-18T07:09:10.726Z,76800
2017-06-18T07:10:11.069Z,73824
2017-06-18T07:11:11.105Z,74976
2017-06-18T07:12:11.146Z,77504
2017-06-18T07:13:11.184Z,73120
2017-06-18T07:14:10.920Z,71360
2017-06-18T07:15:25.886Z,77248
2017-06-18T07:16:25.924Z,77344
2017-06-18T07:17:25.963Z,75168
2017-06-18T07:18:26.001Z,71456
2017-06-18T07:20:11.159Z,68992
2017-06-18T07:22:26.162Z,61792
2017-06-18T07:23:11.278Z,63072
2017-06-18T07:25:11.656Z,62752
2017-06-18T07:26:11.697Z,60832
2017-06-18T07:27:11.736Z,65312
2017-06-18T07:28:11.469Z,70720
2017-06-18T07:29:11.815Z,68288
2017-06-18T07:30:11.853Z,65216
2017-06-18T07:31:11.897Z,66048
2017-06-18T07:32:26.553Z,69280
2017-06-18T07:34:11.706Z,68800
2017-06-18T07:35:11.754Z,66176
2017-06-18T07:36:11.784Z,62368
2017-06-18T07:37:26.748Z,62336
2017-06-18T07:38:11.558Z,64832
2017-06-18T07:39:11.903Z,58080
2017-06-18T07:40:11.943Z,56800
2017-06-18T07:41:12.285Z,57792
2017-06-18T07:42:12.321Z,64256
2017-06-18T07:43:12.639Z,53536
2017-06-18T07:44:12.401Z,66528
2017-06-18T07:45:12.438Z,63328
2017-06-18T07:46:11.872Z,64608
2017-06-18T07:47:27.140Z,64896
2017-06-18T07:48:11.946Z,63872
2017-06-18T07:49:26.911Z,48000
2017-06-18T07:50:27.254Z,63136
2017-06-18T07:51:12.682Z,64736
2017-06-18T07:52:12.706Z,62880
2017-06-18T07:53:12.748Z,64416
2017-06-18T07:54:12.482Z,64064
2017-06-18T07:55:12.519Z,60896
2017-06-18T07:56:12.560Z,61088
2017-06-18T07:57:12.596Z,66368
2017-06-18T07:58:12.937Z,66080
2017-06-18T07:59:12.679Z,68032
2017-06-18T08:00:12.711Z,64096
2017-06-18T08:01:27.676Z,63456
2017-06-18T08:02:27.408Z,24960
2017-06-18T08:03:13.183Z,62144
2017-06-18T08:04:12.864Z,24128
2017-06-18T08:05:27.826Z,64544
2017-06-18T08:06:27.866Z,62176
2017-06-18T08:07:13.283Z,60640
2017-06-18T08:08:13.318Z,61440
2017-06-18T08:09:27.978Z,60320
2017-06-18T08:11:13.438Z,29984
2017-06-18T08:12:13.475Z,21440
2017-06-18T08:13:13.512Z,20384
2017-06-18T08:14:13.244Z,20320
2017-06-18T08:15:27.908Z,20160
2017-06-18T08:16:13.626Z,19616
2017-06-18T08:17:13.663Z,20064
2017-06-18T08:18:13.700Z,19040
2017-06-18T08:19:13.486Z,19264
2017-06-18T08:20:13.778Z,21728
2017-06-18T08:21:13.818Z,20160
2017-06-18T08:22:13.869Z,19328
2017-06-18T08:23:28.513Z,18784
2017-06-18T08:24:13.929Z,18688
2017-06-18T08:25:28.591Z,18688
2017-06-18T08:26:13.706Z,18592
2017-06-18T08:27:14.046Z,18656
2017-06-18T08:28:14.080Z,18592
2017-06-18T08:29:14.119Z,9576
2017-06-18T08:30:14.156Z,19424
2017-06-18T08:31:14.193Z,20384
2017-06-18T08:32:13.927Z,21120
2017-06-18T08:33:14.273Z,20448
2017-06-18T08:34:14.013Z,19936
2017-06-18T08:35:14.353Z,19584
2017-06-18T08:36:14.398Z,19136
2017-06-18T08:37:14.431Z,18784
2017-06-18T08:38:28.775Z,18336
2017-06-18T08:40:14.284Z,16748
2017-06-18T08:41:29.194Z,17824
2017-06-18T08:42:14.610Z,15364
2017-06-18T08:43:14.342Z,8184
2017-06-18T08:44:14.376Z,9092
2017-06-18T08:45:14.417Z,11196
2017-06-18T08:46:14.452Z,19840
2017-06-18T08:47:14.493Z,19264
2017-06-18T08:48:14.828Z,18464
2017-06-18T08:49:29.489Z,17568
2017-06-18T08:50:14.907Z,17016
2017-06-18T08:52:14.671Z,17408
2017-06-18T08:53:15.016Z,17664
2017-06-18T08:54:29.669Z,17112
2017-06-18T08:55:15.095Z,16908
2017-06-18T08:56:15.123Z,16704
2017-06-18T08:57:29.779Z,16668
2017-06-18T08:58:15.194Z,15996
2017-06-18T08:59:15.238Z,16476
2017-06-18T09:00:15.269Z,16232
2017-06-18T09:01:15.309Z,16108
2017-06-18T09:02:15.344Z,16196
2017-06-18T09:03:15.380Z,16360
2017-06-18T09:04:15.421Z,15944
2017-06-18T09:05:29.769Z,15696
2017-06-18T09:06:15.242Z,15552
2017-06-18T09:07:15.225Z,15652
2017-06-18T09:08:15.258Z,15492
2017-06-18T09:09:15.613Z,15516
2017-06-18T09:10:15.636Z,15440
2017-06-18T09:11:15.371Z,15260
2017-06-18T09:12:30.333Z,15412
2017-06-18T09:13:15.141Z,15384
2017-06-18T09:15:15.513Z,14968
2017-06-18T09:16:15.247Z,14776
2017-06-18T09:17:15.892Z,14820
2017-06-18T09:18:15.925Z,14772
2017-06-18T09:19:15.963Z,14692
2017-06-18T09:20:16.053Z,14592
2017-06-18T09:21:16.036Z,14396
2017-06-18T09:22:30.392Z,14216
2017-06-18T09:23:16.109Z,14212
2017-06-18T09:24:16.149Z,13968
2017-06-18T09:25:16.181Z,9904
2017-06-18T09:27:15.949Z,13856
2017-06-18T09:28:16.295Z,13768
2017-06-18T09:29:16.324Z,13784
2017-06-18T09:30:16.366Z,13572
2017-06-18T09:31:16.401Z,13464
2017-06-18T09:32:16.434Z,13380
2017-06-18T09:33:16.485Z,13324
2017-06-18T09:34:16.505Z,13308
2017-06-18T09:35:16.543Z,13144
2017-06-18T09:36:16.280Z,12876
2017-06-18T09:37:16.614Z,12876
2017-06-18T09:38:31.270Z,12940
2017-06-18T09:39:16.685Z,12972
2017-06-18T09:40:16.721Z,13084
2017-06-18T09:41:16.453Z,13220
2017-06-18T09:42:16.792Z,12972
2017-06-18T09:43:16.837Z,12888
2017-06-18T09:44:31.181Z,12832
2017-06-18T09:45:16.903Z,12720
2017-06-18T09:46:16.937Z,12672
2017-06-18T09:47:16.971Z,12484
2017-06-18T09:48:17.013Z,12500
2017-06-18T09:49:17.046Z,12468
2017-06-18T09:50:16.779Z,12496
2017-06-18T09:51:17.112Z,12344
2017-06-18T09:52:16.845Z,12308
2017-06-18T09:53:17.236Z,12268
2017-06-18T09:54:17.218Z,12204
2017-06-18T09:56:17.290Z,12076
2017-06-18T09:57:31.642Z,12020
2017-06-18T09:58:31.979Z,12044
2017-06-18T09:59:17.393Z,12008
2017-06-18T10:00:32.050Z,12008
2017-06-18T10:01:17.515Z,11968
2017-06-18T10:03:17.231Z,11908
2017-06-18T10:04:17.268Z,11816
2017-06-18T10:05:17.300Z,11780
2017-06-18T10:06:17.639Z,11712
2017-06-18T10:07:17.679Z,11640
2017-06-18T10:08:17.709Z,11608
2017-06-18T10:09:17.746Z,11548
2017-06-18T10:10:17.783Z,11500
2017-06-18T10:11:17.816Z,11468
2017-06-18T10:12:17.850Z,11468
2017-06-18T10:13:17.885Z,11424
2017-06-18T10:14:17.921Z,11308
2017-06-18T10:15:17.956Z,11364
2017-06-18T10:16:32.611Z,11324
2017-06-18T10:17:18.055Z,11224
2017-06-18T10:18:17.756Z,11164
2017-06-18T10:19:17.790Z,11096
2017-06-18T10:20:17.825Z,11072
2017-06-18T10:21:17.859Z,11072
2017-06-18T10:22:17.895Z,11056
2017-06-18T10:23:17.931Z,10992
2017-06-18T10:24:32.585Z,10996
2017-06-18T10:25:32.922Z,10964
2017-06-18T10:26:18.337Z,10932
2017-06-18T10:27:18.372Z,10796
2017-06-18T10:28:33.024Z,10760
2017-06-18T10:29:18.442Z,10704
2017-06-18T10:30:18.474Z,10676
2017-06-18T10:31:18.508Z,10604
2017-06-18T10:32:33.165Z,10640
2017-06-18T10:33:18.582Z,10636
2017-06-18T10:34:18.611Z,10620
2017-06-18T10:35:18.646Z,10504
2017-06-18T10:36:18.683Z,10464
2017-06-18T10:37:18.714Z,10424
2017-06-18T10:38:18.749Z,10388
2017-06-18T10:39:18.783Z,10384
2017-06-18T10:40:33.440Z,10280
2017-06-18T10:41:18.853Z,10208
2017-06-18T10:42:18.886Z,10204
2017-06-18T10:43:18.919Z,10188
2017-06-18T10:44:18.953Z,10136
2017-06-18T10:45:18.991Z,10128
2017-06-18T10:46:19.028Z,10108
2017-06-18T10:47:33.677Z,10048
2017-06-18T10:48:19.091Z,10024
2017-06-18T10:49:19.127Z,10004
2017-06-18T10:50:19.178Z,9976
2017-06-18T10:51:19.192Z,9944
2017-06-18T10:52:18.976Z,9908
2017-06-18T10:53:18.958Z,9832
2017-06-18T10:54:18.992Z,9756
2017-06-18T10:55:19.025Z,9660
2017-06-18T10:56:19.361Z,9632
2017-06-18T10:57:34.017Z,9540
2017-06-18T10:58:19.439Z,9516
2017-06-18T10:59:19.465Z,9460
2017-06-18T11:00:19.496Z,9432
2017-06-18T11:01:19.531Z,9404
2017-06-18T11:02:19.565Z,9368
2017-06-18T11:03:19.597Z,9340
2017-06-18T11:04:19.631Z,9284
2017-06-18T11:05:19.667Z,9224
2017-06-18T11:08:19.764Z,9032
2017-06-18T11:09:19.895Z,9016
2017-06-18T11:10:19.831Z,8992
2017-06-18T11:11:19.862Z,8948
2017-06-18T11:12:19.893Z,8884
2017-06-18T11:13:19.928Z,8864
2017-06-18T11:14:19.354Z,8832
2017-06-18T11:15:34.613Z,8792
2017-06-18T11:16:20.026Z,8776
2017-06-18T11:17:20.058Z,8660
2017-06-18T11:18:20.089Z,8508
2017-06-18T11:19:34.743Z,8324
2017-06-18T11:20:19.548Z,8200
2017-06-18T11:21:19.887Z,8040
2017-06-18T11:22:20.225Z,7828
2017-06-18T11:23:20.255Z,7684
2017-06-18T11:24:19.982Z,7572
2017-06-18T11:25:20.318Z,7480
2017-06-18T11:26:20.351Z,7344
2017-06-18T11:27:20.385Z,7236
2017-06-18T11:28:20.420Z,7176
2017-06-18T11:29:20.178Z,7040
2017-06-18T11:30:34.796Z,6940
2017-06-18T11:31:20.515Z,6872
2017-06-18T11:32:35.165Z,6788
2017-06-18T11:33:19.971Z,6804
2017-06-18T11:34:20.608Z,6784
2017-06-18T11:35:35.265Z,6712
2017-06-18T11:36:20.679Z,6684
2017-06-18T11:37:20.706Z,6708
2017-06-18T11:38:20.433Z,6692
2017-06-18T11:39:20.770Z,6668
2017-06-18T11:40:20.800Z,6628
2017-06-18T11:41:20.892Z,6564
2017-06-18T11:42:20.868Z,6504
2017-06-18T11:43:20.899Z,6420
2017-06-18T11:44:20.931Z,6356
2017-06-18T11:45:20.962Z,6232
2017-06-18T11:46:20.999Z,6132
2017-06-18T11:47:21.027Z,6060
2017-06-18T11:48:35.374Z,6008
2017-06-18T11:49:21.090Z,5948
2017-06-18T11:50:21.128Z,5848
2017-06-18T11:51:35.470Z,5784
2017-06-18T11:53:20.912Z,5704
2017-06-18T11:54:20.945Z,5644
2017-06-18T11:55:21.281Z,5588
2017-06-18T11:56:21.313Z,5580
2017-06-18T11:57:21.344Z,5520
2017-06-18T11:58:21.399Z,5480
2017-06-18T11:59:21.404Z,5464
2017-06-18T12:00:21.437Z,5444
2017-06-18T12:01:21.471Z,5432
2017-06-18T12:03:21.534Z,5376
2017-06-18T12:04:36.184Z,5356
2017-06-18T12:05:21.295Z,5368
2017-06-18T12:06:21.322Z,5376
2017-06-18T12:07:36.288Z,5356
2017-06-18T12:08:21.387Z,5368
2017-06-18T12:09:21.721Z,5348
2017-06-18T12:10:21.754Z,5372
2017-06-18T12:11:21.483Z,5384
2017-06-18T12:12:21.817Z,5404
2017-06-18T12:13:21.544Z,5448
2017-06-18T12:14:21.575Z,5476
2017-06-18T12:15:21.909Z,5468
2017-06-18T12:16:21.643Z,5572
2017-06-18T12:17:21.675Z,5596
2017-06-18T12:18:36.623Z,5668
2017-06-18T12:19:21.731Z,5768
2017-06-18T12:20:21.764Z,5788
2017-06-18T12:21:21.848Z,5804
2017-06-18T12:22:36.755Z,5824
2017-06-18T12:23:22.215Z,5840
2017-06-18T12:24:22.194Z,5836
2017-06-18T12:25:22.230Z,5832
2017-06-18T12:26:22.259Z,5808
2017-06-18T12:27:36.609Z,5784
2017-06-18T12:28:22.369Z,5736
2017-06-18T12:29:22.391Z,5740
2017-06-18T12:30:22.380Z,5728
2017-06-18T12:31:22.413Z,5712
2017-06-18T12:32:22.443Z,5588
2017-06-18T12:33:22.477Z,5560
2017-06-18T12:34:22.204Z,5624
2017-06-18T12:35:22.542Z,5588
2017-06-18T12:36:22.573Z,5508
2017-06-18T12:37:22.601Z,5504
2017-06-18T12:40:22.393Z,5532
2017-06-18T12:41:22.726Z,5536
2017-06-18T12:42:22.758Z,5488
2017-06-18T12:43:22.803Z,5472
2017-06-18T12:44:22.210Z,5472
2017-06-18T12:45:22.547Z,5472
2017-06-18T12:46:22.883Z,5456
2017-06-18T12:47:22.609Z,5452
2017-06-18T12:48:22.945Z,5452
2017-06-18T12:49:22.367Z,5452
2017-06-18T12:50:22.703Z,5448
2017-06-18T12:53:23.103Z,5448
2017-06-18T12:54:37.749Z,5476
2017-06-18T12:55:22.930Z,5476
2017-06-18T12:56:22.890Z,5484
2017-06-18T12:57:23.226Z,5464
2017-06-18T12:58:22.953Z,5444
2017-06-18T12:59:23.285Z,5456
2017-06-18T13:00:37.941Z,5464
2017-06-18T13:01:23.350Z,5456
2017-06-18T13:02:23.077Z,5476
2017-06-18T13:03:23.412Z,5480
2017-06-18T13:04:23.441Z,5484
2017-06-18T13:05:23.525Z,5492
2017-06-18T13:06:23.199Z,5492
2017-06-18T13:07:23.233Z,5504
2017-06-18T13:08:23.262Z,5496
2017-06-18T13:09:22.989Z,5508
2017-06-18T13:10:38.249Z,5504
2017-06-18T13:11:23.365Z,5488
2017-06-18T13:12:23.698Z,5464
2017-06-18T13:13:23.721Z,5460
2017-06-18T13:14:23.753Z,5484
2017-06-18T13:15:23.478Z,5484
2017-06-18T13:16:23.815Z,5512
2017-06-18T13:17:23.236Z,5516
2017-06-18T13:18:23.270Z,5480
2017-06-18T13:19:37.917Z,5476
2017-06-18T13:20:23.635Z,5504
2017-06-18T13:21:38.638Z,5508
2017-06-18T13:22:23.997Z,5488
2017-06-18T13:24:23.754Z,5516
2017-06-18T13:25:24.089Z,5540
2017-06-18T13:26:38.742Z,5568
2017-06-18T13:27:24.151Z,5564
2017-06-18T13:29:24.213Z,5572
2017-06-18T13:30:23.661Z,5584
2017-06-18T13:31:24.278Z,5568
2017-06-18T13:32:24.001Z,5496
2017-06-18T13:33:24.035Z,5480
2017-06-18T13:34:24.063Z,5600
2017-06-18T13:35:38.715Z,5596
2017-06-18T13:36:24.429Z,5608
2017-06-18T13:37:24.465Z,5616
2017-06-18T13:39:24.670Z,5576
2017-06-18T13:40:24.552Z,5580
2017-06-18T13:41:24.582Z,5560
2017-06-18T13:42:39.233Z,5600
2017-06-18T13:45:24.402Z,5644
2017-06-18T13:46:24.130Z,5632
2017-06-18T13:47:24.463Z,5640
2017-06-18T13:48:24.191Z,5676
2017-06-18T13:49:24.826Z,5668
2017-06-18T13:50:24.862Z,5568
2017-06-18T13:51:39.205Z,5604
2017-06-18T13:52:24.926Z,5576
2017-06-18T13:53:24.646Z,5568
2017-06-18T13:56:24.744Z,5720
2017-06-18T13:57:39.697Z,5724
2017-06-18T13:58:25.106Z,5756
2017-06-18T13:59:25.133Z,5800
2017-06-18T14:00:25.168Z,5808
2017-06-18T14:01:25.200Z,5808
2017-06-18T14:02:24.924Z,5724
2017-06-18T14:03:25.266Z,5780
2017-06-18T14:04:24.680Z,5776
2017-06-18T14:05:25.317Z,5796
2017-06-18T14:06:25.058Z,5700
2017-06-18T14:07:39.696Z,5388
2017-06-18T14:08:25.408Z,3752
2017-06-18T14:10:25.473Z,5828
2017-06-18T14:11:25.504Z,5824
2017-06-18T14:12:25.228Z,5836
2017-06-18T14:13:25.312Z,5744
2017-06-18T14:15:25.634Z,5804
2017-06-18T14:16:25.655Z,5764
2017-06-18T14:17:25.685Z,5828
2017-06-18T14:18:25.716Z,5880
2017-06-18T14:19:25.745Z,5896
2017-06-18T14:20:25.776Z,5884
2017-06-18T14:21:25.808Z,5880
2017-06-18T14:22:25.840Z,5804
2017-06-18T14:23:25.866Z,5796
2017-06-18T14:24:25.898Z,5892